Time;durP1;ratioP1;P1;durP2;ratioP2;P2;SDS_P1;SDS_P2;PMS_P1;PMS_P2;Temp;Humidity;BMP_temperature;BMP_pressure;BME280_temperature;BME280_humidity;BME280_pressure;Samples;Min_cycle;Max_cycle;Signal;HPM_P1;HPM_P2
2020/12/15 00:02:26;;;;;;;27.40;17.60;;;;;;;4.45;90.22;100702.00;5019904;28;20150;-66
2020/12/15 00:04:54;;;;;;;25.05;16.55;;;;;;;4.43;90.04;100701.22;5018206;28;20145;-63
2020/12/15 00:07:21;;;;;;;25.27;17.30;;;;;;;4.43;89.58;100708.19;4982019;28;20053;-62
2020/12/15 00:09:48;;;;;;;24.02;16.30;;;;;;;4.35;90.19;100702.38;5017595;28;20060;-65
2020/12/15 00:12:14;;;;;;;24.30;16.48;;;;;;;4.39;89.98;100702.22;5003877;28;20061;-63
2020/12/15 00:14:41;;;;;;;25.75;16.50;;;;;;;4.43;90.01;100701.22;5015172;28;20057;-64
2020/12/15 00:17:09;;;;;;;26.58;17.60;;;;;;;4.36;89.87;100704.06;5017307;28;20045;-62
2020/12/15 00:19:35;;;;;;;25.83;16.60;;;;;;;4.39;90.15;100709.19;5013705;28;20326;-61
2020/12/15 00:22:02;;;;;;;29.70;18.05;;;;;;;4.39;91.04;100701.38;5014390;28;20132;-66
2020/12/15 00:24:29;;;;;;;25.50;16.98;;;;;;;4.40;89.69;100693.47;5007313;28;20045;-63
2020/12/15 00:26:56;;;;;;;24.58;17.02;;;;;;;4.43;89.52;100689.94;5014980;28;20057;-62
2020/12/15 00:29:22;;;;;;;23.23;16.08;;;;;;;4.44;90.08;100696.84;4985834;28;20052;-62
2020/12/15 00:31:49;;;;;;;24.75;16.42;;;;;;;4.44;89.83;100696.84;5016081;28;20080;-62
2020/12/15 00:34:17;;;;;;;25.75;16.65;;;;;;;4.39;89.82;100704.81;5000430;28;20135;-60
2020/12/15 00:36:44;;;;;;;27.42;17.58;;;;;;;4.35;90.23;100702.38;5003482;28;20057;-62
2020/12/15 00:39:10;;;;;;;27.95;17.98;;;;;;;4.34;89.27;100693.69;5017286;28;20088;-61
2020/12/15 00:41:37;;;;;;;27.13;16.80;;;;;;;4.31;89.34;100689.41;5012503;28;20160;-62
2020/12/15 00:44:04;;;;;;;23.50;16.00;;;;;;;4.22;89.48;100687.09;5015067;28;20072;-61
2020/12/15 00:46:31;;;;;;;26.15;15.52;;;;;;;4.30;89.86;100689.47;5014691;28;20368;-63
2020/12/15 00:48:58;;;;;;;24.58;16.23;;;;;;;4.28;89.38;100701.72;5017048;28;20256;-63
2020/12/15 00:51:25;;;;;;;25.50;16.40;;;;;;;4.27;89.21;100706.06;5004663;28;20533;-62
2020/12/15 00:53:51;;;;;;;24.92;16.35;;;;;;;4.23;89.43;100701.88;4998101;28;20890;-64
2020/12/15 00:56:18;;;;;;;26.42;16.88;;;;;;;4.27;89.57;100711.25;5015149;28;20293;-64
2020/12/15 00:58:45;;;;;;;29.45;16.23;;;;;;;4.27;89.43;100713.03;5021972;28;20054;-60
2020/12/15 01:01:12;;;;;;;30.38;16.83;;;;;;;4.28;89.36;100707.78;5013493;28;20128;-61
2020/12/15 01:03:39;;;;;;;25.38;16.27;;;;;;;4.21;90.03;100700.19;5017375;28;20426;-64
2020/12/15 01:06:07;;;;;;;27.65;16.50;;;;;;;4.26;88.77;100693.94;4997231;28;20058;-62
2020/12/15 01:08:33;;;;;;;27.30;16.33;;;;;;;4.19;89.74;100689.84;5012073;28;20045;-64
2020/12/15 01:11:15;;;;;;;24.85;16.23;;;;;;;4.23;88.50;100682.75;5021787;28;20045;-62
2020/12/15 01:13:42;;;;;;;25.30;16.10;;;;;;;4.18;89.18;100679.44;5021977;28;20057;-61
2020/12/15 01:16:10;;;;;;;23.40;15.63;;;;;;;4.13;89.16;100676.13;5006188;28;20060;-62
2020/12/15 01:18:38;;;;;;;23.70;15.85;;;;;;;4.17;88.33;100680.34;5025931;28;20107;-63
2020/12/15 01:21:05;;;;;;;27.35;15.98;;;;;;;4.12;89.12;100680.50;5019223;28;20053;-62
2020/12/15 01:23:32;;;;;;;22.67;15.68;;;;;;;4.11;88.07;100680.53;5022834;28;20137;-62
2020/12/15 01:25:58;;;;;;;23.50;15.82;;;;;;;4.12;88.34;100674.44;5008273;28;20131;-63
2020/12/15 01:28:25;;;;;;;22.50;15.23;;;;;;;4.12;89.19;100671.81;5018883;28;20069;-62
2020/12/15 01:30:52;;;;;;;23.00;15.57;;;;;;;4.06;89.29;100676.34;5001410;28;20057;-64
2020/12/15 01:33:19;;;;;;;22.23;15.20;;;;;;;4.06;89.40;100681.53;5014290;28;20073;-64
2020/12/15 01:35:46;;;;;;;22.55;14.82;;;;;;;4.18;88.19;100679.44;5019644;28;20058;-63
2020/12/15 01:38:13;;;;;;;23.80;15.18;;;;;;;4.18;88.50;100687.25;4999585;28;20056;-64
2020/12/15 01:40:47;;;;;;;25.25;15.13;;;;;;;4.18;88.16;100674.22;5016972;28;20485;-64
2020/12/15 01:43:14;;;;;;;23.08;15.35;;;;;;;4.24;88.41;100681.88;5000370;28;20526;-62
2020/12/15 01:45:41;;;;;;;21.52;14.55;;;;;;;4.24;87.76;100671.44;5018720;28;20065;-64
2020/12/15 01:48:07;;;;;;;25.42;14.65;;;;;;;4.14;88.31;100657.84;5020455;28;20566;-62
2020/12/15 01:50:34;;;;;;;23.33;15.45;;;;;;;4.23;88.42;100657.56;5012663;28;20054;-63
2020/12/15 01:53:04;;;;;;;24.83;15.75;;;;;;;4.22;87.76;100657.59;5019635;28;20067;-61
2020/12/15 01:55:30;;;;;;;21.55;13.93;;;;;;;4.26;87.30;100651.38;5004659;28;20330;-63
2020/12/15 01:57:57;;;;;;;17.40;13.38;;;;;;;4.27;88.09;100653.09;5020191;28;20064;-64
2020/12/15 02:00:26;;;;;;;22.90;14.57;;;;;;;4.30;87.32;100655.59;5016624;28;20211;-63
2020/12/15 02:02:52;;;;;;;21.48;14.00;;;;;;;4.18;88.25;100653.38;5016425;28;20054;-60
2020/12/15 02:05:19;;;;;;;20.50;13.90;;;;;;;4.25;87.36;100653.13;5018829;28;20072;-61
2020/12/15 02:07:46;;;;;;;24.55;14.88;;;;;;;4.25;87.96;100657.50;5022776;28;20057;-62
2020/12/15 02:10:13;;;;;;;20.60;14.55;;;;;;;4.24;88.14;100650.59;5013294;28;20996;-63
2020/12/15 02:12:40;;;;;;;20.67;14.80;;;;;;;4.21;88.15;100643.72;5001861;28;20072;-61
2020/12/15 02:15:07;;;;;;;20.02;13.20;;;;;;;4.26;88.05;100641.81;5020724;28;20411;-60
2020/12/15 02:17:34;;;;;;;24.77;15.13;;;;;;;4.25;87.61;100641.88;5012908;28;20053;-62
2020/12/15 02:20:07;;;;;;;24.92;15.75;;;;;;;4.31;88.50;100646.88;5018670;28;20074;-64
2020/12/15 02:22:34;;;;;;;22.05;14.35;;;;;;;4.36;87.71;100641.50;5015304;28;20317;-62
2020/12/15 02:25:09;;;;;;;23.23;14.85;;;;;;;4.37;86.76;100643.19;5004999;28;20058;-64
2020/12/15 02:27:35;;;;;;;22.85;14.60;;;;;;;4.28;87.26;100647.84;5011189;28;20069;-61
2020/12/15 02:30:05;;;;;;;19.98;13.43;;;;;;;4.26;87.91;100651.38;4996134;28;20429;-63
2020/12/15 02:32:33;;;;;;;18.08;14.00;;;;;;;4.33;87.13;100652.91;5003570;28;20080;-63
2020/12/15 02:35:01;;;;;;;19.65;13.95;;;;;;;4.27;86.97;100648.72;5021071;28;20700;-64
2020/12/15 02:37:27;;;;;;;24.10;15.32;;;;;;;4.23;87.71;100647.16;5021310;28;20057;-64
2020/12/15 02:40:03;;;;;;;20.30;13.93;;;;;;;4.22;87.27;100655.00;5016195;28;20534;-62
2020/12/15 02:42:31;;;;;;;21.35;14.68;;;;;;;4.20;87.87;100657.66;5016202;28;20151;-63
2020/12/15 02:44:58;;;;;;;22.48;15.00;;;;;;;4.19;88.03;100663.78;5016276;28;20064;-59
2020/12/15 02:47:26;;;;;;;25.92;14.15;;;;;;;4.15;88.01;100663.91;4997584;28;20056;-61
2020/12/15 02:49:52;;;;;;;23.20;14.20;;;;;;;4.10;88.14;100657.97;5014091;28;20685;-64
2020/12/15 02:52:20;;;;;;;21.23;14.55;;;;;;;4.13;88.22;100657.88;5013662;28;20056;-62
2020/12/15 02:54:50;;;;;;;24.58;16.17;;;;;;;4.09;88.40;100651.91;5007901;28;20055;-63
2020/12/15 02:57:17;;;;;;;20.95;14.02;;;;;;;4.03;88.75;100645.16;5012424;28;20088;-62
2020/12/15 02:59:44;;;;;;;23.10;14.80;;;;;;;4.14;87.61;100649.16;5020143;28;20918;-61
2020/12/15 03:02:11;;;;;;;21.92;14.68;;;;;;;4.07;88.34;100641.56;5011190;28;20545;-64
2020/12/15 03:04:40;;;;;;;22.23;15.98;;;;;;;4.13;88.11;100656.13;5002406;28;20084;-64
2020/12/15 03:07:07;;;;;;;20.08;14.10;;;;;;;4.07;88.07;100657.19;5017421;28;20454;-63
2020/12/15 03:09:34;;;;;;;20.63;13.77;;;;;;;4.18;88.17;100663.81;5003219;28;20063;-62
2020/12/15 03:12:14;;;;;;;21.83;14.88;;;;;;;4.25;87.45;100667.94;5010379;28;20050;-62
2020/12/15 03:14:42;;;;;;;21.27;15.23;;;;;;;4.25;88.03;100666.16;5003121;28;20049;-64
2020/12/15 03:17:09;;;;;;;19.92;14.50;;;;;;;4.26;87.17;100662.66;5016751;28;20045;-63
2020/12/15 03:19:37;;;;;;;24.05;14.25;;;;;;;4.23;87.88;100664.50;4999461;28;20058;-64
2020/12/15 03:22:04;;;;;;;22.67;15.00;;;;;;;4.19;87.62;100660.31;4995430;28;20376;-63
2020/12/15 03:24:30;;;;;;;23.00;15.30;;;;;;;4.23;87.03;100651.47;5007088;28;20041;-62
2020/12/15 03:26:57;;;;;;;20.63;14.52;;;;;;;4.30;87.15;100643.41;5014191;28;20498;-64
2020/12/15 03:29:25;;;;;;;21.40;14.43;;;;;;;4.24;86.96;100645.38;5014807;28;20057;-62
2020/12/15 03:31:51;;;;;;;28.02;16.35;;;;;;;4.25;87.31;100645.31;5011677;28;20077;-61
2020/12/15 03:34:22;;;;;;;26.35;15.93;;;;;;;4.21;87.09;100635.91;5001911;28;20096;-63
2020/12/15 03:36:49;;;;;;;23.95;15.93;;;;;;;4.23;87.72;100638.44;5011491;28;20049;-61
2020/12/15 03:39:16;;;;;;;29.55;15.43;;;;;;;4.24;86.84;100640.19;5019498;28;20050;-59
2020/12/15 03:41:43;;;;;;;22.35;15.27;;;;;;;4.18;87.58;100641.19;5014450;28;20048;-61
2020/12/15 03:44:10;;;;;;;26.77;16.38;;;;;;;4.14;88.01;100642.19;4997964;28;20053;-64
2020/12/15 03:46:36;;;;;;;24.25;16.35;;;;;;;4.11;88.17;100641.47;5014546;28;20414;-62
2020/12/15 03:49:03;;;;;;;27.17;17.08;;;;;;;4.14;87.61;100649.16;5005999;28;20526;-62
2020/12/15 03:51:30;;;;;;;24.23;16.55;;;;;;;4.06;87.94;100647.69;5014609;28;20064;-64
2020/12/15 03:53:57;;;;;;;24.63;15.85;;;;;;;4.07;88.93;100651.97;5018864;28;20068;-62
2020/12/15 03:56:24;;;;;;;24.55;15.68;;;;;;;4.10;87.67;100652.75;5019137;28;20132;-64
2020/12/15 03:58:50;;;;;;;25.80;16.15;;;;;;;4.07;88.65;100659.78;5016886;28;20056;-64
2020/12/15 04:01:17;;;;;;;23.80;15.32;;;;;;;4.15;88.01;100659.56;5012963;28;20049;-63
2020/12/15 04:03:45;;;;;;;22.13;15.23;;;;;;;4.19;88.00;100661.16;5017340;28;20603;-63
2020/12/15 04:06:12;;;;;;;21.45;14.95;;;;;;;4.15;87.80;100667.38;5013795;28;20056;-62
2020/12/15 04:08:41;;;;;;;24.55;15.65;;;;;;;4.07;87.94;100682.38;5023070;28;20156;-61
2020/12/15 04:11:08;;;;;;;24.92;15.95;;;;;;;4.07;87.82;100674.56;5015739;28;20058;-62
2020/12/15 04:13:34;;;;;;;26.33;16.80;;;;;;;3.98;88.71;100680.91;5015192;28;20072;-62
2020/12/15 04:16:01;;;;;;;24.50;15.98;;;;;;;3.89;89.08;100668.19;5013747;28;20545;-61
2020/12/15 04:18:29;;;;;;;25.58;17.35;;;;;;;3.85;88.76;100676.97;5015366;28;20078;-64
2020/12/15 04:20:56;;;;;;;24.48;16.80;;;;;;;3.87;89.05;100671.72;4992966;28;20060;-63
2020/12/15 04:23:23;;;;;;;26.92;17.63;;;;;;;3.83;89.30;100677.91;5019271;28;20060;-61
2020/12/15 04:25:51;;;;;;;27.20;17.95;;;;;;;3.78;89.49;100672.84;5017237;28;20057;-62
2020/12/15 04:28:18;;;;;;;25.90;17.45;;;;;;;3.72;88.98;100671.28;5017848;28;20617;-64
2020/12/15 04:30:45;;;;;;;27.88;18.10;;;;;;;3.73;89.84;100672.97;5016289;28;20502;-62
2020/12/15 04:33:12;;;;;;;27.85;17.17;;;;;;;3.68;89.97;100671.44;4996872;28;20142;-63
2020/12/15 04:35:39;;;;;;;26.20;17.20;;;;;;;3.74;88.80;100671.25;5014476;28;20061;-63
2020/12/15 04:38:06;;;;;;;26.23;18.23;;;;;;;3.69;89.16;100676.59;4998156;28;20088;-62
2020/12/15 04:40:33;;;;;;;29.15;18.05;;;;;;;3.64;89.49;100677.63;5019513;28;20140;-63
2020/12/15 04:43:09;;;;;;;28.37;18.07;;;;;;;3.62;90.33;100689.84;5019745;28;20084;-62
2020/12/15 04:45:36;;;;;;;25.52;17.20;;;;;;;3.65;89.63;100680.19;5001584;28;20472;-61
2020/12/15 04:48:08;;;;;;;31.27;18.90;;;;;;;3.70;89.72;100683.50;5022757;28;20065;-63
2020/12/15 04:50:38;;;;;;;29.25;18.67;;;;;;;3.51;90.62;100674.50;5000959;28;20057;-61
2020/12/15 04:53:10;;;;;;;26.92;18.63;;;;;;;3.56;90.33;100680.47;5003686;28;20080;-62
2020/12/15 04:55:38;;;;;;;30.42;18.23;;;;;;;3.45;90.79;100669.50;4983542;28;20097;-64
2020/12/15 04:58:05;;;;;;;31.42;19.20;;;;;;;3.53;90.30;100675.34;5023216;28;20049;-62
2020/12/15 05:00:34;;;;;;;32.67;19.27;;;;;;;3.58;90.23;100672.59;5025318;28;20053;-62
2020/12/15 05:03:02;;;;;;;26.35;18.60;;;;;;;3.46;90.71;100669.44;5025419;28;20045;-63
2020/12/15 05:05:31;;;;;;;29.70;19.35;;;;;;;3.38;90.76;100663.63;5007708;28;20053;-64
2020/12/15 05:08:02;;;;;;;30.90;20.55;;;;;;;3.47;90.50;100671.19;4993624;28;20153;-63
2020/12/15 05:10:29;;;;;;;30.63;19.92;;;;;;;3.34;90.95;100668.97;5017154;28;20062;-65
2020/12/15 05:12:56;;;;;;;31.08;19.98;;;;;;;3.31;91.45;100664.69;5006544;28;20064;-63
2020/12/15 05:15:22;;;;;;;31.05;18.13;;;;;;;3.37;90.77;100674.06;5016906;28;20160;-61
2020/12/15 05:17:49;;;;;;;36.00;19.67;;;;;;;3.33;90.55;100662.88;5021205;28;20550;-63
2020/12/15 05:20:25;;;;;;;29.65;19.08;;;;;;;3.37;90.91;100680.13;5017847;28;20058;-62
2020/12/15 05:22:52;;;;;;;32.38;20.33;;;;;;;3.27;91.20;100678.69;5021084;28;20481;-61
2020/12/15 05:25:26;;;;;;;33.53;19.85;;;;;;;3.25;91.63;100668.31;5021370;28;20045;-63
2020/12/15 05:27:53;;;;;;;34.55;20.33;;;;;;;3.24;91.16;100670.94;5035663;23;20438;-54
2020/12/15 05:30:20;;;;;;;30.55;20.58;;;;;;;3.23;91.17;100675.31;4998825;28;20053;-57
2020/12/15 05:32:49;;;;;;;30.95;19.23;;;;;;;3.26;91.28;100666.56;5016370;28;20049;-52
2020/12/15 05:35:28;;;;;;;33.88;20.10;;;;;;;3.24;92.12;100663.16;5004326;28;20107;-54
2020/12/15 05:37:56;;;;;;;32.30;20.48;;;;;;;3.31;91.56;100662.09;5008661;28;20058;-57
2020/12/15 05:40:24;;;;;;;30.02;20.15;;;;;;;3.31;91.53;100662.09;4997901;28;20054;-53
2020/12/15 05:42:59;;;;;;;30.70;19.48;;;;;;;3.29;91.29;100663.91;4988480;28;20129;-53
2020/12/15 05:45:27;;;;;;;28.50;20.23;;;;;;;3.33;91.37;100670.69;4996878;28;20145;-55
2020/12/15 05:48:08;;;;;;;33.03;20.83;;;;;;;3.32;91.19;100674.19;5000261;28;20133;-55
2020/12/15 05:50:36;;;;;;;29.13;18.88;;;;;;;3.30;91.19;100682.06;4998338;28;20143;-55
2020/12/15 05:53:04;;;;;;;31.52;19.92;;;;;;;3.40;90.64;100684.41;5000192;28;20046;-56
2020/12/15 05:55:32;;;;;;;30.55;19.50;;;;;;;3.44;90.90;100671.25;4999832;28;20054;-56
2020/12/15 05:57:59;;;;;;;37.17;20.35;;;;;;;3.48;90.91;100672.88;5000401;28;20531;-55
2020/12/15 06:00:30;;;;;;;33.58;21.02;;;;;;;3.41;91.10;100670.47;4999106;28;20058;-54
2020/12/15 06:03:01;;;;;;;31.13;20.77;;;;;;;3.51;90.06;100671.91;5000772;28;20557;-57
2020/12/15 06:05:30;;;;;;;29.65;19.15;;;;;;;3.51;90.09;100667.59;5002417;28;20148;-53
2020/12/15 06:07:58;;;;;;;33.72;18.95;;;;;;;3.55;90.24;100676.97;5003653;28;20084;-56
2020/12/15 06:10:27;;;;;;;33.03;19.60;;;;;;;3.63;90.03;100679.38;5001050;28;20050;-54
2020/12/15 06:12:57;;;;;;;28.58;19.05;;;;;;;3.62;89.71;100680.28;4986608;28;20046;-55
2020/12/15 06:15:24;;;;;;;32.15;19.02;;;;;;;3.61;89.43;100673.38;5001672;28;20066;-57
2020/12/15 06:17:56;;;;;;;28.95;19.02;;;;;;;3.62;89.34;100664.66;5002854;28;20069;-54
2020/12/15 06:20:31;;;;;;;32.15;20.00;;;;;;;3.64;89.23;100646.38;4998815;28;20058;-55
2020/12/15 06:22:58;;;;;;;31.33;19.85;;;;;;;3.61;90.05;100656.91;4974685;28;20058;-55
2020/12/15 06:25:34;;;;;;;30.75;20.02;;;;;;;3.67;88.99;100652.34;5001646;28;20144;-53
2020/12/15 06:28:09;;;;;;;33.15;19.40;;;;;;;3.68;89.53;100661.00;4997847;28;20054;-54
2020/12/15 06:30:38;;;;;;;29.20;18.88;;;;;;;3.70;89.42;100667.91;5002123;28;22069;-58
2020/12/15 06:33:07;;;;;;;28.92;19.15;;;;;;;3.72;89.02;100668.69;4972758;28;20054;-54
2020/12/15 06:35:34;;;;;;;28.00;18.67;;;;;;;3.71;88.71;100664.38;5002106;28;20526;-54
2020/12/15 06:38:06;;;;;;;30.90;18.40;;;;;;;3.71;88.35;100658.31;5004823;28;20057;-55
2020/12/15 06:40:45;;;;;;;36.85;19.33;;;;;;;3.66;89.24;100661.06;4997834;28;20054;-56
2020/12/15 06:43:18;;;;;;;32.13;20.13;;;;;;;3.64;88.87;100656.78;4984428;28;20132;-57
2020/12/15 06:45:45;;;;;;;34.35;20.08;;;;;;;3.71;89.14;100650.50;4967135;28;20137;-57
2020/12/15 06:48:13;;;;;;;30.15;18.77;;;;;;;3.67;89.62;100649.75;5003975;28;20054;-57
2020/12/15 06:50:45;;;;;;;31.85;18.98;;;;;;;3.64;88.66;100649.84;4999418;28;20057;-55
2020/12/15 06:53:14;;;;;;;32.35;20.08;;;;;;;3.65;89.18;100651.56;4998893;28;20130;-52
2020/12/15 06:55:43;;;;;;;29.85;18.98;;;;;;;3.74;89.06;100647.84;4996784;28;20058;-55
2020/12/15 06:58:09;;;;;;;31.98;19.95;;;;;;;3.76;88.59;100651.22;4991130;28;20053;-58
2020/12/15 07:00:38;;;;;;;31.20;18.95;;;;;;;3.76;88.54;100652.06;4996036;28;20105;-53
2020/12/15 07:03:06;;;;;;;30.83;19.42;;;;;;;3.74;88.41;100647.84;4995436;28;20141;-53
2020/12/15 07:05:34;;;;;;;48.53;21.65;;;;;;;3.81;88.74;100641.53;4995635;28;20054;-55
2020/12/15 07:08:07;;;;;;;27.73;18.83;;;;;;;3.75;88.43;100637.34;4995973;28;20407;-54
2020/12/15 07:10:38;;;;;;;35.70;19.33;;;;;;;3.73;88.36;100643.50;4996811;28;20595;-53
2020/12/15 07:13:05;;;;;;;31.83;20.38;;;;;;;3.69;89.02;100641.88;4999394;28;20128;-55
2020/12/15 07:15:35;;;;;;;35.33;20.60;;;;;;;3.68;88.13;100637.56;4998461;28;20120;-55
2020/12/15 07:18:03;;;;;;;28.90;19.73;;;;;;;3.59;88.68;100630.06;4997151;28;20057;-55
2020/12/15 07:20:32;;;;;;;34.25;20.33;;;;;;;3.62;88.50;100632.56;4977425;28;20541;-56
2020/12/15 07:22:58;;;;;;;31.63;20.27;;;;;;;3.69;88.64;100632.34;4961294;28;20046;-55
2020/12/15 07:25:25;;;;;;;32.75;20.20;;;;;;;3.69;88.68;100634.06;4979167;28;20108;-59
2020/12/15 07:27:52;;;;;;;29.50;20.00;;;;;;;3.68;88.49;100635.81;4979272;28;20054;-55
2020/12/15 07:30:21;;;;;;;30.30;19.20;;;;;;;3.75;88.63;100633.91;4993485;28;20549;-56
2020/12/15 07:32:49;;;;;;;34.08;18.67;;;;;;;3.75;87.97;100634.75;4995472;28;20060;-55
2020/12/15 07:35:20;;;;;;;30.85;19.23;;;;;;;3.82;87.73;100635.41;4994137;28;20077;-53
2020/12/15 07:37:49;;;;;;;33.13;21.20;;;;;;;3.79;88.52;100644.19;4993463;28;20041;-54
2020/12/15 07:40:19;;;;;;;34.33;21.65;;;;;;;3.73;87.78;100631.31;4980833;28;20060;-55
2020/12/15 07:42:54;;;;;;;40.05;22.13;;;;;;;3.87;88.57;100641.31;4994481;28;20226;-54
2020/12/15 07:45:22;;;;;;;37.60;21.38;;;;;;;3.95;88.18;100639.31;4999365;28;20092;-56
2020/12/15 07:47:49;;;;;;;41.65;22.75;;;;;;;4.03;88.20;100631.28;4979511;28;20050;-58
2020/12/15 07:50:17;;;;;;;34.38;20.20;;;;;;;4.11;86.33;100624.09;4996711;28;20058;-56
2020/12/15 07:52:43;;;;;;;31.48;19.02;;;;;;;3.98;87.46;100641.84;4994553;28;20057;-54
2020/12/15 07:55:15;;;;;;;32.03;20.55;;;;;;;3.94;86.88;100644.59;4998559;28;20702;-57
2020/12/15 07:57:48;;;;;;;35.97;21.25;;;;;;;3.93;88.83;100632.47;4994861;28;20153;-56
2020/12/15 08:00:16;;;;;;;31.35;20.73;;;;;;;4.01;87.04;100636.56;4993765;28;20050;-54
2020/12/15 08:02:48;;;;;;;33.25;19.90;;;;;;;4.04;87.30;100639.03;4992608;28;20141;-56
2020/12/15 08:05:23;;;;;;;32.15;18.67;;;;;;;4.09;86.93;100638.88;4990666;28;20803;-57
2020/12/15 08:07:58;;;;;;;33.85;21.88;;;;;;;4.04;87.28;100644.25;4978041;28;20610;-57
2020/12/15 08:10:27;;;;;;;38.50;20.92;;;;;;;4.05;87.10;100643.38;4990671;28;20062;-51
2020/12/15 08:12:59;;;;;;;31.77;20.10;;;;;;;4.15;87.19;100653.50;4991446;28;20247;-55
2020/12/15 08:15:27;;;;;;;32.53;19.90;;;;;;;4.21;86.59;100654.13;4973030;28;20817;-52
2020/12/15 08:17:54;;;;;;;30.02;19.40;;;;;;;4.21;85.76;100643.72;4966701;28;20058;-52
2020/12/15 08:20:28;;;;;;;34.17;20.48;;;;;;;4.29;85.81;100653.91;4990810;28;20133;-52
2020/12/15 08:23:14;;;;;;;32.90;19.52;;;;;;;4.28;85.80;100647.84;4976109;28;20133;-55
2020/12/15 08:25:44;;;;;;;34.40;19.27;;;;;;;4.33;85.52;100658.13;4994385;28;20081;-52
2020/12/15 08:28:21;;;;;;;28.92;19.23;;;;;;;4.37;84.91;100656.22;4976165;28;20369;-54
2020/12/15 08:30:52;;;;;;;33.33;21.27;;;;;;;4.29;85.59;100659.13;4992865;28;20050;-55
2020/12/15 08:33:23;;;;;;;32.78;20.52;;;;;;;4.48;84.89;100657.59;4997064;28;20733;-53
2020/12/15 08:35:51;;;;;;;29.60;19.30;;;;;;;4.57;84.35;100659.91;4997598;28;20049;-56
2020/12/15 08:38:19;;;;;;;30.92;19.75;;;;;;;4.64;83.64;100651.84;4988569;28;20058;-62
2020/12/15 08:40:55;;;;;;;31.45;19.58;;;;;;;4.64;83.11;100644.91;4996383;28;20446;-51
2020/12/15 08:43:22;;;;;;;27.40;18.38;;;;;;;4.58;83.46;100647.72;4999761;28;22393;-52
2020/12/15 08:45:49;;;;;;;32.85;19.30;;;;;;;4.54;83.46;100649.56;4993923;28;20064;-55
2020/12/15 08:48:22;;;;;;;34.40;20.58;;;;;;;4.53;83.51;100647.03;4990816;28;20090;-50
2020/12/15 08:50:49;;;;;;;33.05;19.85;;;;;;;4.46;84.20;100651.59;4992735;28;20545;-54
2020/12/15 08:53:17;;;;;;;30.88;20.20;;;;;;;4.51;83.84;100641.03;4997841;28;20056;-51
2020/12/15 08:55:45;;;;;;;38.65;21.92;;;;;;;4.55;83.23;100648.69;4995607;28;20054;-52
2020/12/15 08:58:12;;;;;;;32.17;19.98;;;;;;;4.57;83.07;100643.41;4993718;28;20080;-52
2020/12/15 09:00:44;;;;;;;30.23;18.55;;;;;;;4.65;83.46;100646.59;4990125;28;20160;-53
2020/12/15 09:03:12;;;;;;;29.15;19.38;;;;;;;4.67;83.56;100652.59;4985539;28;20484;-53
2020/12/15 09:05:50;;;;;;;35.42;21.77;;;;;;;4.75;82.64;100649.75;5002497;28;20065;-54
2020/12/15 09:08:17;;;;;;;36.50;19.38;;;;;;;4.76;82.60;100641.88;4997746;28;20376;-51
2020/12/15 09:10:44;;;;;;;38.08;20.38;;;;;;;4.86;82.28;100636.31;4996073;28;20046;-53
2020/12/15 09:13:11;;;;;;;44.25;20.02;;;;;;;4.96;81.13;100640.34;4979302;28;20141;-57
2020/12/15 09:15:55;;;;;;;34.90;18.27;;;;;;;5.02;80.99;100645.31;4975261;28;20294;-53
2020/12/15 09:18:32;;;;;;;35.50;18.83;;;;;;;5.07;80.24;100646.84;4991471;28;20055;-54
2020/12/15 09:21:12;;;;;;;36.03;18.13;;;;;;;5.26;81.72;100643.56;4974062;28;20046;-56
2020/12/15 09:23:42;;;;;;;29.05;18.88;;;;;;;5.35;79.90;100638.00;4990406;28;20046;-54
2020/12/15 09:26:08;;;;;;;31.48;17.70;;;;;;;5.33;79.49;100647.69;4993243;28;20059;-54
2020/12/15 09:28:35;;;;;;;28.73;18.20;;;;;;;5.39;79.41;100642.22;4999462;28;20096;-56
2020/12/15 09:31:02;;;;;;;43.13;18.90;;;;;;;5.42;78.77;100642.13;4982025;28;20049;-52
2020/12/15 09:33:29;;;;;;;47.03;27.63;;;;;;;5.55;78.81;100639.91;4999384;28;20046;-55
2020/12/15 09:35:56;;;;;;;34.75;19.80;;;;;;;5.58;78.21;100627.59;5000977;28;20067;-53
2020/12/15 09:38:23;;;;;;;30.08;18.50;;;;;;;5.59;77.76;100624.06;4999801;28;20053;-54
2020/12/15 09:40:50;;;;;;;33.58;18.70;;;;;;;5.54;78.41;100620.78;4999887;28;20511;-56
2020/12/15 09:43:17;;;;;;;30.77;17.60;;;;;;;5.63;78.00;100609.13;5000230;28;20057;-57
2020/12/15 09:45:50;;;;;;;36.55;19.35;;;;;;;5.58;78.05;100611.03;4998980;28;20083;-54
2020/12/15 09:48:17;;;;;;;36.00;19.20;;;;;;;5.64;77.87;100604.75;4980734;28;20057;-53
2020/12/15 09:50:44;;;;;;;27.77;18.42;;;;;;;5.65;78.49;100614.28;4998524;28;20076;-53
2020/12/15 09:53:11;;;;;;;27.65;18.10;;;;;;;5.62;77.61;100617.00;4998547;28;20049;-54
2020/12/15 09:55:38;;;;;;;27.50;17.80;;;;;;;5.67;78.27;100612.44;4994271;28;20050;-48
2020/12/15 09:58:04;;;;;;;30.13;18.77;;;;;;;5.71;77.48;100620.09;4996000;28;20060;-57
2020/12/15 10:00:32;;;;;;;24.73;17.50;;;;;;;5.66;77.73;100618.59;4996348;28;20349;-53
2020/12/15 10:02:59;;;;;;;30.98;19.08;;;;;;;5.69;77.77;100623.69;4996753;28;20229;-60
2020/12/15 10:05:26;;;;;;;29.08;18.38;;;;;;;5.79;76.96;100628.50;4997476;28;20061;-60
2020/12/15 10:07:53;;;;;;;30.45;19.48;;;;;;;5.69;77.42;100627.16;5001684;28;20160;-54
2020/12/15 10:10:20;;;;;;;32.63;20.30;;;;;;;5.91;77.49;100629.78;4994275;28;20049;-57
2020/12/15 10:12:46;;;;;;;33.78;20.48;;;;;;;5.81;76.48;100637.13;4999388;28;20053;-61
2020/12/15 10:15:13;;;;;;;33.17;18.48;;;;;;;5.80;77.05;100637.19;4980407;28;20053;-58
2020/12/15 10:17:40;;;;;;;29.38;18.10;;;;;;;5.75;77.16;100632.13;4997536;28;20050;-59
2020/12/15 10:20:08;;;;;;;29.02;18.42;;;;;;;5.69;77.77;100627.16;4999544;28;20054;-57
2020/12/15 10:22:34;;;;;;;53.05;29.85;;;;;;;5.77;77.79;100619.88;4998255;28;20047;-62
2020/12/15 10:25:01;;;;;;;59.40;33.03;;;;;;;5.88;76.86;100618.59;4999122;28;20072;-58
2020/12/15 10:27:28;;;;;;;26.90;17.55;;;;;;;5.84;77.25;100626.53;5000783;28;20058;-57
2020/12/15 10:29:55;;;;;;;27.20;17.35;;;;;;;5.82;77.19;100614.47;4999553;28;20561;-57
2020/12/15 10:32:24;;;;;;;35.83;20.10;;;;;;;5.79;77.25;100611.97;4994884;28;20538;-58
2020/12/15 10:34:51;;;;;;;32.20;18.65;;;;;;;5.86;76.83;100603.00;5000096;28;20057;-56
2020/12/15 10:37:22;;;;;;;29.65;18.77;;;;;;;5.89;76.71;100600.22;4997234;28;20125;-58
2020/12/15 10:39:52;;;;;;;32.05;19.90;;;;;;;5.86;77.11;100600.38;5000319;28;20054;-58
2020/12/15 10:42:19;;;;;;;28.02;19.35;;;;;;;5.80;77.08;100595.38;4996057;28;20088;-59
2020/12/15 10:44:46;;;;;;;28.02;18.95;;;;;;;5.74;77.93;100595.63;4998843;28;20747;-60
2020/12/15 10:47:13;;;;;;;28.35;18.05;;;;;;;5.80;77.05;100591.00;4998514;28;20045;-60
2020/12/15 10:49:40;;;;;;;27.88;18.15;;;;;;;5.74;77.76;100590.41;4999695;28;20077;-60
2020/12/15 10:52:07;;;;;;;32.25;18.88;;;;;;;5.97;78.54;100587.75;4998428;28;20546;-60
2020/12/15 10:54:34;;;;;;;27.77;18.80;;;;;;;5.97;77.67;100589.53;5000277;28;20339;-57
2020/12/15 10:57:01;;;;;;;38.28;19.85;;;;;;;6.04;76.35;100588.38;4993000;28;20065;-58
2020/12/15 10:59:27;;;;;;;35.72;19.80;;;;;;;6.11;75.92;100581.13;5000562;28;20407;-61
2020/12/15 11:01:54;;;;;;;34.50;20.25;;;;;;;5.99;76.10;100588.56;4993082;28;20058;-56
2020/12/15 11:04:21;;;;;;;37.08;19.65;;;;;;;5.89;76.47;100589.78;5001207;28;20069;-58
2020/12/15 11:06:48;;;;;;;27.30;17.85;;;;;;;5.93;76.73;100598.38;4996617;28;20113;-60
2020/12/15 11:09:15;;;;;;;30.55;18.45;;;;;;;5.91;76.69;100600.19;4982697;28;20050;-56
2020/12/15 11:11:46;;;;;;;30.73;18.52;;;;;;;6.03;76.20;100590.13;4995214;28;20136;-59
2020/12/15 11:14:15;;;;;;;37.72;21.90;;;;;;;6.22;77.09;100595.44;4999291;28;20041;-56
2020/12/15 11:17:01;;;;;;;26.48;17.73;;;;;;;6.26;75.78;100598.78;4997000;28;20045;-59
2020/12/15 11:19:28;;;;;;;26.80;18.05;;;;;;;6.22;75.83;100602.44;4997739;28;20085;-58
2020/12/15 11:21:55;;;;;;;36.22;19.98;;;;;;;6.21;75.18;100601.56;4997792;28;20058;-57
2020/12/15 11:24:22;;;;;;;28.70;19.15;;;;;;;6.31;74.94;100599.44;5001701;28;20439;-59